Time;durP1;ratioP1;P1;durP2;ratioP2;P2;SDS_P1;SDS_P2;PMS_P1;PMS_P2;Temp;Humidity;BMP_temperature;BMP_pressure;BME280_temperature;BME280_humidity;BME280_pressure;Samples;Min_cycle;Max_cycle;Signal;HPM_P1;HPM_P2
2023/12/22 00:01:26;;;;;;;20.70;12.02;;;;;;;13.98;56.53;95439.31;5036128;28;20037;-24
2023/12/22 00:03:51;;;;;;;17.25;10.23;;;;;;;13.88;57.00;95438.69;5037412;28;20035;-24
2023/12/22 00:06:17;;;;;;;20.33;11.52;;;;;;;14.01;56.46;95424.75;5036047;28;20013;-24
2023/12/22 00:08:42;;;;;;;20.00;11.77;;;;;;;13.96;56.70;95418.00;5044329;28;20025;-24
2023/12/22 00:11:08;;;;;;;21.52;11.00;;;;;;;13.94;57.08;95415.00;5043146;28;20033;-24
2023/12/22 00:13:33;;;;;;;25.35;11.25;;;;;;;14.08;56.50;95412.72;5036719;28;20032;-24
2023/12/22 00:16:00;;;;;;;16.38;9.85;;;;;;;14.07;56.60;95422.88;5043958;28;20029;-24
2023/12/22 00:18:26;;;;;;;16.35;9.95;;;;;;;13.93;56.85;95435.31;5036486;28;20024;-24
2023/12/22 00:20:51;;;;;;;17.42;9.90;;;;;;;14.02;56.59;95435.19;5036848;28;20029;-24
2023/12/22 00:23:17;;;;;;;18.63;9.65;;;;;;;14.06;56.54;95432.28;5021249;28;20410;-24
2023/12/22 00:25:42;;;;;;;21.55;9.93;;;;;;;14.03;56.65;95427.75;5039884;28;20028;-24
2023/12/22 00:28:08;;;;;;;13.82;9.32;;;;;;;14.08;56.53;95418.19;5036403;28;20064;-24
2023/12/22 00:30:33;;;;;;;19.90;9.55;;;;;;;13.95;56.76;95418.47;5035739;28;20427;-24
2023/12/22 00:32:59;;;;;;;16.33;9.52;;;;;;;14.00;56.79;95413.09;5043668;28;20032;-23
2023/12/22 00:35:46;;;;;;;18.50;8.95;;;;;;;14.06;56.52;95396.84;5035848;28;20489;-24
2023/12/22 00:38:12;;;;;;;19.55;9.35;;;;;;;13.98;56.98;95395.72;5042892;28;20026;-24
2023/12/22 00:40:37;;;;;;;15.05;8.30;;;;;;;14.15;56.49;95387.78;5042973;28;20363;-24
2023/12/22 00:43:03;;;;;;;16.73;8.20;;;;;;;13.99;56.79;95389.78;5035472;28;20082;-24
2023/12/22 00:45:28;;;;;;;16.75;8.05;;;;;;;14.02;56.84;95407.94;5036746;28;20556;-24
2023/12/22 00:47:54;;;;;;;15.52;7.50;;;;;;;14.07;56.64;95422.88;5018061;28;20022;-23
2023/12/22 00:50:19;;;;;;;13.50;6.93;;;;;;;14.13;56.56;95440.06;5042977;28;20041;-24
2023/12/22 00:52:45;;;;;;;10.73;7.18;;;;;;;13.95;57.34;95440.28;5038671;28;20021;-24
2023/12/22 00:55:10;;;;;;;13.70;8.20;;;;;;;14.13;56.89;95442.03;5022550;28;20485;-24
2023/12/22 00:57:35;;;;;;;17.27;8.52;;;;;;;14.14;56.90;95444.28;5043376;28;20489;-24
2023/12/22 01:00:01;;;;;;;19.70;9.90;;;;;;;14.10;57.00;95451.16;5035912;28;20379;-24
2023/12/22 01:02:26;;;;;;;20.80;10.15;;;;;;;14.03;57.15;95455.78;5034928;28;20021;-24
2023/12/22 01:04:52;;;;;;;17.90;10.10;;;;;;;14.05;57.22;95466.22;5043141;28;20025;-24
2023/12/22 01:07:18;;;;;;;18.15;10.32;;;;;;;14.06;57.33;95458.78;5042155;28;20049;-24
2023/12/22 01:09:44;;;;;;;15.98;9.25;;;;;;;13.90;57.58;95457.28;5036388;28;20021;-24
2023/12/22 01:12:10;;;;;;;16.58;9.90;;;;;;;14.01;57.33;95452.00;5034914;28;20382;-24
2023/12/22 01:14:36;;;;;;;15.85;9.95;;;;;;;13.87;57.78;95439.16;5042335;28;20020;-24
2023/12/22 01:17:01;;;;;;;18.13;10.50;;;;;;;13.79;58.29;95432.59;5042437;28;20025;-24
2023/12/22 01:19:27;;;;;;;19.67;9.90;;;;;;;13.80;58.29;95423.94;5039587;28;20029;-24
2023/12/22 01:21:53;;;;;;;16.48;10.10;;;;;;;13.92;57.88;95401.09;5038371;28;20112;-24
2023/12/22 01:24:19;;;;;;;23.48;10.65;;;;;;;13.90;58.06;95403.53;5035191;28;20514;-24
2023/12/22 01:26:44;;;;;;;18.33;9.90;;;;;;;13.96;57.95;95409.09;5035147;28;20379;-24
2023/12/22 01:29:10;;;;;;;20.15;10.80;;;;;;;13.85;58.29;95408.88;5018919;28;20069;-24
2023/12/22 01:31:35;;;;;;;17.38;10.35;;;;;;;13.95;58.20;95404.84;5041096;28;20021;-24
2023/12/22 01:34:00;;;;;;;21.48;11.25;;;;;;;13.95;58.07;95404.84;5034864;28;20163;-24
2023/12/22 01:36:26;;;;;;;19.08;10.13;;;;;;;13.99;58.32;95406.16;5034947;28;20471;-24
2023/12/22 01:38:51;;;;;;;19.83;10.10;;;;;;;13.97;58.31;95403.13;5034608;28;20025;-24
2023/12/22 01:41:17;;;;;;;21.55;10.27;;;;;;;13.79;58.95;95392.47;5034574;28;20036;-24
2023/12/22 01:43:42;;;;;;;29.13;10.27;;;;;;;13.99;58.14;95383.59;5041334;28;20463;-24
2023/12/22 01:46:09;;;;;;;18.27;10.32;;;;;;;13.98;58.32;95395.72;5041521;28;20147;-24
2023/12/22 01:48:36;;;;;;;17.70;10.43;;;;;;;13.94;58.03;95381.53;5035977;28;20512;-24
2023/12/22 01:51:02;;;;;;;16.00;10.30;;;;;;;14.02;57.99;95377.94;5034895;28;20083;-24
2023/12/22 01:53:29;;;;;;;17.15;9.85;;;;;;;13.96;58.39;95385.31;5035595;28;20067;-24
2023/12/22 01:55:56;;;;;;;23.65;10.18;;;;;;;13.90;58.46;95368.09;5034149;28;20427;-24
2023/12/22 01:58:26;;;;;;;19.42;10.02;;;;;;;14.15;57.72;95369.44;5034925;28;20517;-24
2023/12/22 02:00:53;;;;;;;17.08;10.38;;;;;;;13.83;58.86;95376.69;5041261;28;20029;-24
2023/12/22 02:03:19;;;;;;;17.70;10.43;;;;;;;13.95;58.46;95377.59;5034786;28;20028;-24
2023/12/22 02:05:45;;;;;;;17.80;10.25;;;;;;;13.94;58.53;95376.84;5034589;28;20027;-24
2023/12/22 02:08:17;;;;;;;18.35;9.77;;;;;;;13.92;58.90;95352.03;5034677;28;20013;-24
2023/12/22 02:10:43;;;;;;;16.40;8.83;;;;;;;13.84;58.98;95345.47;5034390;28;20032;-24
2023/12/22 02:13:09;;;;;;;20.00;9.65;;;;;;;13.89;58.98;95341.31;5041397;28;20022;-24
2023/12/22 02:15:35;;;;;;;21.75;9.90;;;;;;;14.03;58.52;95330.38;5048240;28;20021;-24
2023/12/22 02:18:12;;;;;;;19.23;8.95;;;;;;;14.10;58.27;95333.91;5035292;28;20029;-24
2023/12/22 02:20:38;;;;;;;16.92;9.27;;;;;;;14.06;58.59;95338.84;5034052;28;20021;-24
2023/12/22 02:23:04;;;;;;;17.85;9.43;;;;;;;13.91;59.00;95339.63;5034669;28;20029;-24
2023/12/22 02:25:29;;;;;;;18.15;9.82;;;;;;;13.93;58.92;95326.28;5037702;28;20024;-24
2023/12/22 02:28:03;;;;;;;16.33;9.38;;;;;;;13.91;58.85;95317.81;5037404;28;20021;-24
2023/12/22 02:30:53;;;;;;;16.55;9.00;;;;;;;14.13;58.16;95317.38;5033788;28;20036;-24
2023/12/22 02:33:23;;;;;;;19.48;8.75;;;;;;;13.88;59.33;95329.66;5035194;28;20028;-24
2023/12/22 02:35:50;;;;;;;15.35;8.65;;;;;;;13.88;58.94;95323.47;5034318;28;20025;-24
2023/12/22 02:38:17;;;;;;;16.83;9.07;;;;;;;13.85;59.22;95327.88;5042745;28;20077;-24
2023/12/22 02:40:44;;;;;;;19.00;9.18;;;;;;;13.91;59.03;95334.19;5040440;28;20108;-24
2023/12/22 02:43:09;;;;;;;16.05;9.45;;;;;;;13.80;59.46;95344.91;5019923;28;20029;-23
2023/12/22 02:45:35;;;;;;;17.08;9.55;;;;;;;14.02;58.78;95349.94;5041477;28;20096;-24
2023/12/22 02:48:01;;;;;;;16.98;9.38;;;;;;;13.87;59.06;95349.97;5016372;28;20025;-24
2023/12/22 02:50:26;;;;;;;15.73;8.68;;;;;;;14.03;58.36;95333.09;5034660;28;20045;-24
2023/12/22 02:52:52;;;;;;;17.08;9.35;;;;;;;14.01;58.58;95335.56;5041142;28;20024;-24
2023/12/22 02:55:17;;;;;;;13.85;8.20;;;;;;;13.93;59.07;95337.19;5040617;28;20067;-24
2023/12/22 02:57:43;;;;;;;16.17;8.48;;;;;;;14.09;58.40;95343.34;5042533;28;20462;-24
2023/12/22 03:00:09;;;;;;;18.60;9.00;;;;;;;13.77;59.44;95340.41;5034050;28;20031;-24
2023/12/22 03:02:34;;;;;;;21.58;8.80;;;;;;;14.01;58.99;95351.91;5034401;28;20036;-24
2023/12/22 03:04:59;;;;;;;17.20;7.95;;;;;;;13.84;59.58;95350.19;5036939;28;20020;-23
2023/12/22 03:07:25;;;;;;;16.30;7.53;;;;;;;13.93;59.12;95348.09;5037411;28;20022;-24
2023/12/22 03:09:50;;;;;;;15.35;7.65;;;;;;;13.88;58.99;95359.66;5041462;28;20034;-24
2023/12/22 03:12:16;;;;;;;18.38;7.68;;;;;;;13.98;58.55;95355.56;5033246;28;20041;-25
2023/12/22 03:14:41;;;;;;;13.45;6.63;;;;;;;14.02;58.50;95356.13;5041581;28;20389;-25
2023/12/22 03:17:07;;;;;;;14.88;6.95;;;;;;;13.98;58.66;95361.03;5033724;28;20025;-25
2023/12/22 03:19:33;;;;;;;17.25;7.68;;;;;;;14.01;58.62;95353.88;5033419;28;20022;-24
2023/12/22 03:21:59;;;;;;;15.27;6.90;;;;;;;14.01;58.68;95349.19;5043868;28;20112;-24
2023/12/22 03:24:25;;;;;;;15.30;6.57;;;;;;;13.85;58.93;95349.69;5036799;28;20031;-23
2023/12/22 03:26:51;;;;;;;16.38;7.38;;;;;;;13.85;59.20;95354.38;5037454;28;20049;-24
2023/12/22 03:29:18;;;;;;;16.80;7.22;;;;;;;13.95;58.74;95359.28;5036489;28;20064;-24
2023/12/22 03:31:44;;;;;;;18.77;7.15;;;;;;;13.90;58.61;95354.47;5036865;28;20052;-24
2023/12/22 03:34:09;;;;;;;18.60;6.90;;;;;;;13.90;58.59;95346.31;5045303;28;20021;-24
2023/12/22 03:36:35;;;;;;;16.25;6.07;;;;;;;13.81;58.93;95346.41;5044233;28;20124;-24
2023/12/22 03:39:01;;;;;;;14.23;6.50;;;;;;;13.89;59.02;95344.78;5026778;28;20025;-24
2023/12/22 03:41:26;;;;;;;13.32;5.93;;;;;;;13.85;59.09;95357.09;5037374;28;20112;-24
2023/12/22 03:43:52;;;;;;;14.35;5.85;;;;;;;13.92;59.13;95352.03;5036721;28;20052;-24
2023/12/22 03:46:18;;;;;;;12.00;5.28;;;;;;;13.80;59.39;95339.47;5037962;28;20053;-24
2023/12/22 03:48:44;;;;;;;15.95;5.80;;;;;;;13.95;59.05;95345.63;5043840;28;20446;-24
2023/12/22 03:51:11;;;;;;;12.48;5.03;;;;;;;13.85;59.09;95351.66;5043328;28;20021;-24
2023/12/22 03:53:37;;;;;;;12.52;5.53;;;;;;;13.93;58.86;95331.72;5037962;28;20079;-24
2023/12/22 03:56:02;;;;;;;17.40;5.10;;;;;;;13.83;58.91;95326.88;5041851;28;20487;-24
2023/12/22 03:58:29;;;;;;;11.93;4.65;;;;;;;13.98;58.60;95338.47;5039799;28;20028;-24
2023/12/22 04:00:55;;;;;;;14.15;5.03;;;;;;;14.00;58.49;95347.69;5039311;28;20115;-24
2023/12/22 04:03:20;;;;;;;14.60;4.25;;;;;;;13.88;58.73;95350.72;5040909;28;20114;-24
2023/12/22 04:05:46;;;;;;;11.05;3.83;;;;;;;13.94;58.61;95340.66;5043582;28;20033;-24
2023/12/22 04:08:11;;;;;;;11.30;3.70;;;;;;;14.05;58.14;95327.19;5036860;28;20013;-24
2023/12/22 04:10:37;;;;;;;15.50;4.20;;;;;;;13.80;58.60;95331.28;5036652;28;20031;-24
2023/12/22 04:13:02;;;;;;;10.30;3.03;;;;;;;13.98;58.40;95336.50;5036680;28;20107;-24
2023/12/22 04:15:28;;;;;;;11.23;3.95;;;;;;;13.95;58.39;95339.44;5036092;28;20033;-24
2023/12/22 04:17:54;;;;;;;9.10;3.78;;;;;;;13.87;58.34;95338.31;5043801;28;20388;-24
2023/12/22 04:20:19;;;;;;;15.15;4.00;;;;;;;13.99;58.04;95342.69;5025583;28;20112;-24
2023/12/22 04:22:45;;;;;;;19.88;4.38;;;;;;;13.93;58.28;95348.09;5036056;28;20530;-24
2023/12/22 04:25:10;;;;;;;17.40;4.35;;;;;;;13.95;58.21;95350.34;5036558;28;20021;-24
2023/12/22 04:27:36;;;;;;;16.42;4.03;;;;;;;13.97;57.94;95343.16;5040930;28;20020;-24
2023/12/22 04:30:01;;;;;;;9.07;2.90;;;;;;;13.92;58.02;95343.09;5038680;28;20108;-24
2023/12/22 04:32:27;;;;;;;7.55;2.70;;;;;;;13.87;58.28;95354.66;5042678;28;20022;-24
2023/12/22 04:34:52;;;;;;;11.57;2.83;;;;;;;13.97;58.14;95356.78;5036344;28;20032;-24
2023/12/22 04:37:18;;;;;;;29.08;4.72;;;;;;;14.01;58.09;95354.63;5037523;28;20026;-24
2023/12/22 04:39:43;;;;;;;10.10;2.55;;;;;;;13.89;58.25;95352.97;5042203;28;20036;-24
2023/12/22 04:42:09;;;;;;;11.93;3.50;;;;;;;13.90;58.56;95354.47;5043072;28;20087;-24
2023/12/22 04:44:34;;;;;;;9.25;3.13;;;;;;;13.86;58.52;95348.47;5042467;28;20025;-24
2023/12/22 04:47:01;;;;;;;11.85;3.10;;;;;;;13.83;58.47;95354.88;5035360;28;20124;-24
2023/12/22 04:49:26;;;;;;;11.65;2.90;;;;;;;14.00;58.09;95369.47;5035902;28;20045;-24
2023/12/22 04:51:51;;;;;;;10.55;2.97;;;;;;;13.95;58.15;95358.50;5035703;28;20489;-24
2023/12/22 04:54:17;;;;;;;10.68;3.00;;;;;;;13.98;57.92;95354.81;5042450;28;20374;-24
2023/12/22 04:56:42;;;;;;;13.05;2.85;;;;;;;13.83;58.37;95356.84;5019334;28;20471;-24
2023/12/22 04:59:08;;;;;;;9.32;3.15;;;;;;;13.95;58.02;95348.38;5023358;28;20486;-24
2023/12/22 05:01:33;;;;;;;15.00;3.22;;;;;;;13.90;58.16;95340.09;5035738;28;20395;-24
2023/12/22 05:03:59;;;;;;;11.18;3.30;;;;;;;13.95;57.94;95345.63;5035699;28;20033;-24
2023/12/22 05:06:24;;;;;;;16.63;2.53;;;;;;;14.00;57.87;95331.31;5035197;28;20017;-24
2023/12/22 05:08:50;;;;;;;9.50;2.45;;;;;;;13.98;57.97;95331.03;5023899;28;20178;-24
2023/12/22 05:11:15;;;;;;;9.60;2.00;;;;;;;13.92;58.25;95322.06;5041771;28;20469;-24
2023/12/22 05:13:42;;;;;;;13.45;2.63;;;;;;;14.02;57.77;95309.78;5035825;28;20418;-24
2023/12/22 05:16:08;;;;;;;14.80;3.08;;;;;;;14.03;58.18;95296.91;5042460;28;20022;-24
2023/12/22 05:18:33;;;;;;;8.40;2.17;;;;;;;13.79;58.13;95302.53;5035516;28;20098;-24
2023/12/22 05:20:59;;;;;;;11.05;2.50;;;;;;;13.79;58.41;95299.81;5035366;28;20033;-24
2023/12/22 05:23:24;;;;;;;14.38;3.22;;;;;;;13.84;58.47;95296.44;5039108;28;20024;-24
2023/12/22 05:25:50;;;;;;;9.10;2.63;;;;;;;13.95;58.18;95312.94;5037764;28;20025;-23
2023/12/22 05:28:15;;;;;;;11.15;2.47;;;;;;;14.02;58.00;95301.63;5042531;28;20040;-24
2023/12/22 05:30:41;;;;;;;8.75;2.40;;;;;;;14.15;57.62;95311.44;5034923;28;20382;-24
2023/12/22 05:33:06;;;;;;;9.60;2.22;;;;;;;13.99;58.23;95315.44;5035919;28;20493;-24
2023/12/22 05:35:32;;;;;;;9.57;2.30;;;;;;;14.08;57.88;95328.22;5034899;28;20033;-24
2023/12/22 05:37:57;;;;;;;14.18;2.65;;;;;;;13.99;58.14;95318.91;5048511;28;20021;-24
2023/12/22 05:40:22;;;;;;;7.25;2.00;;;;;;;13.99;58.25;95318.16;5043002;28;20029;-24
2023/12/22 05:42:48;;;;;;;9.80;2.28;;;;;;;13.93;58.55;95323.56;5034654;28;20479;-24
2023/12/22 05:45:15;;;;;;;9.43;2.35;;;;;;;13.90;58.61;95334.66;5035073;28;20529;-24
2023/12/22 05:47:40;;;;;;;10.98;2.78;;;;;;;14.01;58.40;95332.81;5034417;28;20017;-24
2023/12/22 05:50:07;;;;;;;8.40;2.05;;;;;;;13.98;58.20;95333.00;5040305;28;20090;-24
2023/12/22 05:52:32;;;;;;;12.55;2.50;;;;;;;13.92;58.75;95346.59;5037042;28;20078;-24
2023/12/22 05:54:58;;;;;;;11.52;2.40;;;;;;;13.90;58.78;95351.00;5041015;28;20096;-24
2023/12/22 05:57:26;;;;;;;8.60;3.08;;;;;;;13.89;58.78;95347.53;5024328;28;20368;-24
2023/12/22 05:59:52;;;;;;;11.68;3.30;;;;;;;13.98;58.40;95350.13;5022913;28;20021;-24
2023/12/22 06:02:18;;;;;;;21.20;5.85;;;;;;;13.96;58.33;95360.03;5034182;28;20020;-24
2023/12/22 06:04:43;;;;;;;23.80;6.25;;;;;;;13.92;58.23;95360.22;5042317;28;20033;-24
2023/12/22 06:07:10;;;;;;;20.48;5.25;;;;;;;13.92;58.54;95367.63;5041615;28;20032;-24
2023/12/22 06:09:36;;;;;;;14.88;4.22;;;;;;;13.94;58.13;95370.63;5034645;28;20030;-24
2023/12/22 06:12:01;;;;;;;11.13;3.45;;;;;;;14.05;57.85;95375.50;5034590;28;20094;-24
2023/12/22 06:14:27;;;;;;;8.43;3.03;;;;;;;13.98;58.22;95371.94;5040064;28;20013;-24
2023/12/22 06:16:53;;;;;;;12.20;2.53;;;;;;;13.97;57.87;95372.44;5036322;28;20021;-24
2023/12/22 06:19:19;;;;;;;16.30;4.25;;;;;;;13.94;57.89;95393.19;5016545;28;20411;-24
2023/12/22 06:21:44;;;;;;;10.90;3.38;;;;;;;13.86;58.05;95381.16;5034492;28;20026;-24
2023/12/22 06:24:10;;;;;;;10.30;3.85;;;;;;;13.81;58.48;95381.84;5041561;28;20025;-24
2023/12/22 06:26:36;;;;;;;16.80;5.22;;;;;;;13.71;58.61;95385.91;5033913;28;20013;-24
2023/12/22 06:29:03;;;;;;;13.40;3.10;;;;;;;13.95;58.03;95389.25;5034390;28;20544;-24
2023/12/22 06:31:28;;;;;;;15.32;3.08;;;;;;;13.93;58.01;95402.59;5033964;28;20068;-24
2023/12/22 06:33:54;;;;;;;9.40;2.97;;;;;;;13.95;58.06;95410.31;5041133;28;20498;-24
2023/12/22 06:36:24;;;;;;;14.13;2.80;;;;;;;13.82;58.15;95412.56;5041951;28;20033;-24
2023/12/22 06:38:51;;;;;;;9.00;2.83;;;;;;;13.97;57.83;95411.31;5041764;28;20060;-24
2023/12/22 06:41:30;;;;;;;10.90;3.15;;;;;;;13.95;57.87;95418.47;5017185;28;20021;-24
2023/12/22 06:44:01;;;;;;;13.98;3.65;;;;;;;13.86;58.04;95411.16;5034253;28;20559;-24
2023/12/22 06:46:28;;;;;;;7.03;3.03;;;;;;;13.78;58.32;95418.22;5041808;28;20021;-24
2023/12/22 06:48:55;;;;;;;15.18;5.15;;;;;;;13.83;58.36;95422.25;5037798;28;20382;-24
2023/12/22 06:51:27;;;;;;;13.30;5.22;;;;;;;13.96;57.66;95411.81;5036478;28;20021;-24
2023/12/22 06:53:59;;;;;;;19.00;7.33;;;;;;;13.89;58.09;95418.38;5034149;28;20025;-24
2023/12/22 06:56:27;;;;;;;15.27;7.03;;;;;;;13.95;57.66;95419.22;5043860;28;20273;-24
2023/12/22 06:58:54;;;;;;;13.38;6.63;;;;;;;13.66;58.87;95432.88;5037953;28;20028;-24
2023/12/22 07:01:34;;;;;;;15.80;8.13;;;;;;;13.86;58.48;95434.91;5037370;28;20490;-24
2023/12/22 07:04:01;;;;;;;18.80;8.50;;;;;;;13.90;58.16;95430.78;5038381;28;20068;-24
2023/12/22 07:06:29;;;;;;;14.95;6.22;;;;;;;13.92;58.20;95441.97;5044189;28;20021;-24
2023/12/22 07:09:12;;;;;;;12.15;3.88;;;;;;;13.91;58.19;95426.84;5038542;28;20017;-24
2023/12/22 07:11:44;;;;;;;15.52;4.95;;;;;;;13.88;58.36;95432.47;5037236;28;20025;-24
2023/12/22 07:14:10;;;;;;;10.00;4.90;;;;;;;13.70;58.76;95441.63;5041244;28;20390;-24
2023/12/22 07:16:36;;;;;;;11.32;4.00;;;;;;;13.79;58.47;95430.63;5047969;28;20033;-24
2023/12/22 07:19:02;;;;;;;11.05;2.83;;;;;;;13.99;57.73;95417.03;5044448;28;20096;-23
2023/12/22 07:21:27;;;;;;;12.80;2.80;;;;;;;13.94;57.98;95422.44;5037111;28;20481;-24
2023/12/22 07:23:53;;;;;;;10.55;3.17;;;;;;;14.01;57.74;95422.03;5037603;28;20038;-24
2023/12/22 07:26:18;;;;;;;13.32;4.55;;;;;;;13.92;58.03;95427.59;5037704;28;20029;-24
2023/12/22 07:28:44;;;;;;;16.73;4.20;;;;;;;13.95;58.07;95432.88;5024986;28;20470;-24
2023/12/22 07:31:09;;;;;;;12.20;3.97;;;;;;;13.91;58.42;95442.44;5038922;28;20479;-24
2023/12/22 07:33:34;;;;;;;16.73;5.03;;;;;;;13.72;59.00;95441.91;5044007;28;20021;-24
2023/12/22 07:36:00;;;;;;;11.90;3.72;;;;;;;14.00;57.83;95434.16;5036657;28;20593;-24
2023/12/22 07:38:25;;;;;;;11.98;3.53;;;;;;;13.92;58.07;95439.25;5045270;28;20029;-24
2023/12/22 07:40:51;;;;;;;14.55;4.55;;;;;;;13.96;57.99;95439.06;5036221;28;20026;-24
2023/12/22 07:43:16;;;;;;;11.52;3.92;;;;;;;13.81;58.88;95447.25;5043937;28;20155;-24
2023/12/22 07:45:42;;;;;;;16.70;4.38;;;;;;;13.91;58.52;95462.28;5044168;28;20063;-24
2023/12/22 07:48:07;;;;;;;11.80;4.10;;;;;;;13.95;58.37;95460.13;5036601;28;20022;-24
2023/12/22 07:50:33;;;;;;;12.90;4.78;;;;;;;13.88;58.46;95446.84;5037714;28;20045;-24
2023/12/22 07:52:59;;;;;;;11.27;3.92;;;;;;;13.88;58.74;95446.84;5037045;28;20120;-24
2023/12/22 07:55:24;;;;;;;14.02;4.57;;;;;;;13.92;58.51;95457.56;5037595;28;20100;-24
2023/12/22 07:57:50;;;;;;;11.55;3.22;;;;;;;13.96;58.65;95460.88;5047022;28;20179;-24
2023/12/22 08:00:19;;;;;;;10.32;2.60;;;;;;;14.03;58.35;95461.22;5041182;28;20068;-24
2023/12/22 08:02:44;;;;;;;9.35;3.17;;;;;;;13.88;58.87;95468.66;5037085;28;20113;-24
2023/12/22 08:05:10;;;;;;;10.93;2.90;;;;;;;13.99;58.63;95474.28;5036960;28;20022;-24
2023/12/22 08:07:36;;;;;;;8.48;3.00;;;;;;;14.01;58.42;95468.38;5034916;28;20032;-24
2023/12/22 08:10:02;;;;;;;13.93;2.85;;;;;;;13.88;58.75;95460.47;5044194;28;20040;-24
2023/12/22 08:12:28;;;;;;;9.10;2.40;;;;;;;14.20;57.99;95466.19;5043137;28;20486;-24
2023/12/22 08:14:54;;;;;;;9.15;2.35;;;;;;;13.94;58.89;95485.13;5044838;28;20060;-24
2023/12/22 08:17:19;;;;;;;7.35;1.80;;;;;;;13.91;58.85;95489.53;5035842;28;20033;-24
2023/12/22 08:19:45;;;;;;;10.13;2.90;;;;;;;13.94;59.03;95485.88;5036253;28;20036;-24
2023/12/22 08:22:12;;;;;;;11.27;2.50;;;;;;;14.11;58.22;95488.09;5043663;28;20021;-24
2023/12/22 08:24:39;;;;;;;10.65;2.25;;;;;;;13.81;59.21;95492.81;5041817;28;20024;-24
2023/12/22 08:27:06;;;;;;;11.77;2.20;;;;;;;14.08;58.39;95489.06;5038323;28;20018;-24
2023/12/22 08:29:31;;;;;;;9.30;2.50;;;;;;;14.22;57.83;95491.75;5036352;28;20032;-24
2023/12/22 08:31:57;;;;;;;6.80;2.17;;;;;;;13.99;58.61;95487.16;5036166;28;20394;-24
2023/12/22 08:34:23;;;;;;;8.38;1.80;;;;;;;14.08;58.52;95494.50;5038583;28;20379;-24
2023/12/22 08:36:48;;;;;;;7.85;1.92;;;;;;;14.19;57.95;95509.06;5040532;28;20028;-24
2023/12/22 08:39:14;;;;;;;10.43;1.80;;;;;;;13.89;59.12;95516.50;5036281;28;20115;-24
2023/12/22 08:41:39;;;;;;;7.05;2.22;;;;;;;14.03;58.77;95518.47;5036186;28;20094;-24
2023/12/22 08:44:06;;;;;;;7.45;1.92;;;;;;;14.16;58.22;95526.38;5035458;28;20029;-24
2023/12/22 08:46:31;;;;;;;10.10;1.90;;;;;;;14.03;58.72;95523.19;5035446;28;20032;-24
2023/12/22 08:48:59;;;;;;;7.63;2.20;;;;;;;14.10;58.55;95530.22;5042414;28;20050;-24
2023/12/22 08:51:25;;;;;;;7.03;2.05;;;;;;;14.28;58.11;95536.25;5043419;28;20033;-24
2023/12/22 08:53:52;;;;;;;7.15;1.77;;;;;;;13.92;59.09;95529.19;5035368;28;20406;-24
2023/12/22 08:56:18;;;;;;;7.20;2.40;;;;;;;14.08;58.81;95543.59;5042818;28;20029;-24
2023/12/22 08:58:43;;;;;;;6.75;1.95;;;;;;;14.38;58.06;95545.81;5036734;28;20040;-24
2023/12/22 09:01:15;;;;;;;9.25;2.30;;;;;;;16.42;52.61;95541.06;5034953;28;20048;-24
2023/12/22 09:03:44;;;;;;;8.02;2.03;;;;;;;19.65;43.47;95541.66;5036662;28;20053;-24
2023/12/22 09:06:10;;;;;;;8.15;1.70;;;;;;;22.66;36.95;95537.75;5040991;28;20488;-24
2023/12/22 09:08:36;;;;;;;5.05;1.80;;;;;;;23.27;35.43;95531.16;5042693;28;20114;-24
2023/12/22 09:11:01;;;;;;;8.50;1.75;;;;;;;23.75;34.35;95526.44;5042155;28;20021;-24
2023/12/22 09:13:26;;;;;;;8.18;2.03;;;;;;;24.59;32.58;95527.34;5035625;28;20112;-25
2023/12/22 09:15:53;;;;;;;7.72;2.05;;;;;;;25.09;31.53;95539.97;5043465;28;20049;-24
2023/12/22 09:18:18;;;;;;;7.18;1.75;;;;;;;24.81;31.95;95546.22;5041720;28;20105;-24
2023/12/22 09:20:44;;;;;;;8.48;1.75;;;;;;;25.60;30.64;95542.09;5024592;28;20542;-25
2023/12/22 09:23:10;;;;;;;4.65;1.40;;;;;;;26.54;29.17;95555.25;5036069;28;20021;-24
2023/12/22 09:25:35;;;;;;;9.48;1.73;;;;;;;26.73;28.50;95544.53;5034775;28;20017;-25
2023/12/22 09:28:01;;;;;;;10.20;1.85;;;;;;;26.87;28.43;95549.91;5035220;28;20364;-25
2023/12/22 09:30:27;;;;;;;10.23;1.98;;;;;;;27.94;26.69;95551.25;5034512;28;20048;-24
2023/12/22 09:32:52;;;;;;;10.75;1.65;;;;;;;27.72;27.00;95546.47;5035090;28;20049;-25
2023/12/22 09:35:19;;;;;;;6.38;1.92;;;;;;;27.04;27.54;95550.88;5042574;28;20022;-25
2023/12/22 09:37:44;;;;;;;7.03;2.33;;;;;;;27.29;27.63;95548.25;5039640;28;20035;-25
2023/12/22 09:40:10;;;;;;;7.95;1.58;;;;;;;26.80;27.85;95534.72;5037512;28;20025;-23
2023/12/22 09:42:40;;;;;;;7.55;1.83;;;;;;;23.51;32.85;95532.97;5034711;28;20471;-25
2023/12/22 09:45:10;;;;;;;7.78;1.70;;;;;;;20.02;40.32;95530.19;5034657;28;20078;-25
2023/12/22 09:47:37;;;;;;;9.25;1.98;;;;;;;18.61;44.08;95536.66;5041616;28;20021;-25
2023/12/22 09:50:05;;;;;;;10.05;3.47;;;;;;;18.00;46.58;95533.88;5040314;28;20044;-25
2023/12/22 09:52:34;;;;;;;10.50;3.25;;;;;;;17.32;47.70;95540.38;5036218;28;20018;-24
2023/12/22 09:55:01;;;;;;;15.73;5.97;;;;;;;16.99;49.53;95537.47;5034813;28;20024;-25
2023/12/22 09:57:27;;;;;;;14.68;5.95;;;;;;;16.95;49.93;95542.44;5042301;28;20018;-25
2023/12/22 09:59:54;;;;;;;13.65;5.43;;;;;;;16.59;51.06;95539.19;5037513;28;20110;-24
2023/12/22 10:02:20;;;;;;;13.90;5.22;;;;;;;16.33;51.69;95539.25;5038193;28;20490;-24
2023/12/22 10:04:46;;;;;;;13.40;4.45;;;;;;;16.30;52.00;95542.97;5024800;28;20025;-24
2023/12/22 10:07:14;;;;;;;15.75;5.70;;;;;;;16.27;52.34;95543.19;5034253;28;20018;-24
2023/12/22 10:09:41;;;;;;;11.80;3.70;;;;;;;16.09;53.19;95546.97;5035199;28;20502;-25
2023/12/22 10:12:11;;;;;;;11.07;4.03;;;;;;;15.89;53.32;95556.00;5034653;28;20025;-25
2023/12/22 10:14:38;;;;;;;13.77;4.15;;;;;;;15.86;53.79;95554.22;5048431;28;20017;-24
2023/12/22 10:17:05;;;;;;;11.70;3.53;;;;;;;15.69;54.07;95547.84;5041130;28;20029;-24
2023/12/22 10:19:30;;;;;;;8.10;3.35;;;;;;;15.54;54.83;95547.91;5034454;28;20028;-24
2023/12/22 10:21:56;;;;;;;7.68;3.05;;;;;;;15.37;55.34;95544.97;5035172;28;20022;-24
2023/12/22 10:24:44;;;;;;;9.57;3.10;;;;;;;15.64;54.43;95540.34;5034089;28;20033;-24
2023/12/22 10:27:11;;;;;;;11.68;2.75;;;;;;;15.51;54.45;95535.19;5034551;28;20501;-24
2023/12/22 10:29:37;;;;;;;9.85;2.47;;;;;;;15.58;54.75;95537.53;5038530;28;20017;-24
2023/12/22 10:32:04;;;;;;;9.98;2.40;;;;;;;15.44;55.25;95541.09;5040483;28;20025;-24
2023/12/22 10:34:33;;;;;;;11.32;3.03;;;;;;;15.45;54.79;95524.19;5038527;28;20029;-24
2023/12/22 10:36:59;;;;;;;10.82;3.05;;;;;;;15.39;55.13;95531.59;5038397;28;20029;-24
2023/12/22 10:39:31;;;;;;;13.55;2.50;;;;;;;15.03;56.02;95521.22;5027116;28;20107;-24
2023/12/22 10:41:58;;;;;;;9.07;2.10;;;;;;;15.35;55.12;95522.84;5038448;28;20036;-25
2023/12/22 10:44:28;;;;;;;9.85;2.10;;;;;;;15.43;54.71;95526.69;5045470;28;20100;-24
2023/12/22 10:46:54;;;;;;;12.60;2.13;;;;;;;15.29;55.22;95524.75;5045162;28;20033;-25
2023/12/22 10:49:21;;;;;;;7.15;2.17;;;;;;;15.32;55.09;95521.09;5037684;28;20128;-24
2023/12/22 10:51:46;;;;;;;8.35;2.33;;;;;;;15.38;55.12;95516.41;5038025;28;20602;-24
2023/12/22 10:54:12;;;;;;;11.07;2.38;;;;;;;14.95;56.75;95514.66;5037348;28;20036;-24
2023/12/22 10:56:39;;;;;;;6.68;1.90;;;;;;;15.18;55.53;95513.72;5038324;28;20029;-24
2023/12/22 10:59:06;;;;;;;7.88;2.30;;;;;;;15.20;56.13;95522.19;5042162;28;20033;-24
2023/12/22 11:01:38;;;;;;;10.95;3.03;;;;;;;15.28;55.70;95519.78;5040210;28;20021;-24
2023/12/22 11:04:06;;;;;;;8.10;2.03;;;;;;;15.11;56.34;95519.56;5038005;28;20128;-24
2023/12/22 11:06:35;;;;;;;13.80;2.70;;;;;;;15.15;56.53;95522.84;5037261;28;20100;-24
2023/12/22 11:09:06;;;;;;;12.25;3.00;;;;;;;15.29;56.39;95513.84;5047286;28;20021;-24
2023/12/22 11:11:36;;;;;;;11.77;3.58;;;;;;;15.22;56.77;95511.50;5041384;28;20025;-24
2023/12/22 11:14:02;;;;;;;8.77;3.33;;;;;;;15.17;56.88;95514.19;5045247;28;20031;-24
2023/12/22 11:16:29;;;;;;;8.70;3.47;;;;;;;15.10;57.03;95512.59;5037101;28;20022;-24
2023/12/22 11:18:56;;;;;;;10.27;3.15;;;;;;;15.29;56.27;95508.38;5038965;28;20467;-24
2023/12/22 11:21:22;;;;;;;10.98;3.15;;;;;;;15.01;57.38;95510.75;5044240;28;20362;-24
2023/12/22 11:23:50;;;;;;;10.60;2.85;;;;;;;15.09;56.85;95513.81;5044427;28;20467;-24